sensor_id;sensor_type;location;lat;lon;timestamp;pressure;altitude;pressure_sealevel;temperature
11240;BMP180;5677;48.488;13.436;2022-08-21T00:01:09;97746.00;;;23.20
11240;BMP180;5677;48.488;13.436;2022-08-21T00:03:38;97745.00;;;23.20
11240;BMP180;5677;48.488;13.436;2022-08-21T00:06:09;97744.00;;;23.20
11240;BMP180;5677;48.488;13.436;2022-08-21T00:08:38;97741.00;;;23.20
11240;BMP180;5677;48.488;13.436;2022-08-21T00:11:06;97745.00;;;23.20
11240;BMP180;5677;48.488;13.436;2022-08-21T00:13:36;97739.00;;;23.20
11240;BMP180;5677;48.488;13.436;2022-08-21T00:16:05;97745.00;;;23.20
11240;BMP180;5677;48.488;13.436;2022-08-21T00:18:33;97740.00;;;23.20
11240;BMP180;5677;48.488;13.436;2022-08-21T00:21:02;97744.00;;;23.20
11240;BMP180;5677;48.488;13.436;2022-08-21T00:23:34;97741.00;;;23.20
11240;BMP180;5677;48.488;13.436;2022-08-21T00:26:03;97737.00;;;23.20
11240;BMP180;5677;48.488;13.436;2022-08-21T00:28:32;97738.00;;;23.20
11240;BMP180;5677;48.488;13.436;2022-08-21T00:31:01;97737.00;;;23.20
11240;BMP180;5677;48.488;13.436;2022-08-21T00:33:31;97734.00;;;23.20
11240;BMP180;5677;48.488;13.436;2022-08-21T00:36:00;97730.00;;;23.20
11240;BMP180;5677;48.488;13.436;2022-08-21T00:38:31;97732.00;;;23.20
11240;BMP180;5677;48.488;13.436;2022-08-21T00:41:03;97735.00;;;23.20
11240;BMP180;5677;48.488;13.436;2022-08-21T00:43:35;97733.00;;;23.20
11240;BMP180;5677;48.488;13.436;2022-08-21T00:46:05;97724.00;;;23.20
11240;BMP180;5677;48.488;13.436;2022-08-21T00:48:35;97732.00;;;23.20
11240;BMP180;5677;48.488;13.436;2022-08-21T00:51:08;97730.00;;;23.20
11240;BMP180;5677;48.488;13.436;2022-08-21T00:53:43;97724.00;;;23.20
11240;BMP180;5677;48.488;13.436;2022-08-21T00:56:13;97732.00;;;23.20
11240;BMP180;5677;48.488;13.436;2022-08-21T00:58:43;97730.00;;;23.20
11240;BMP180;5677;48.488;13.436;2022-08-21T01:01:12;97725.00;;;23.20
11240;BMP180;5677;48.488;13.436;2022-08-21T01:03:41;97725.00;;;23.20
11240;BMP180;5677;48.488;13.436;2022-08-21T01:06:10;97730.00;;;23.10
11240;BMP180;5677;48.488;13.436;2022-08-21T01:08:40;97724.00;;;23.10
11240;BMP180;5677;48.488;13.436;2022-08-21T01:11:09;97721.00;;;23.10
11240;BMP180;5677;48.488;13.436;2022-08-21T01:13:39;97718.00;;;23.10
11240;BMP180;5677;48.488;13.436;2022-08-21T01:16:17;97719.00;;;23.10
11240;BMP180;5677;48.488;13.436;2022-08-21T01:18:46;97719.00;;;23.10
11240;BMP180;5677;48.488;13.436;2022-08-21T01:21:21;97725.00;;;23.10
11240;BMP180;5677;48.488;13.436;2022-08-21T01:23:52;97720.00;;;23.10
11240;BMP180;5677;48.488;13.436;2022-08-21T01:26:25;97719.00;;;23.10
11240;BMP180;5677;48.488;13.436;2022-08-21T01:29:00;97717.00;;;23.10
11240;BMP180;5677;48.488;13.436;2022-08-21T01:31:29;97715.00;;;23.10
11240;BMP180;5677;48.488;13.436;2022-08-21T01:34:00;97720.00;;;23.10
11240;BMP180;5677;48.488;13.436;2022-08-21T01:36:30;97717.00;;;23.10
11240;BMP180;5677;48.488;13.436;2022-08-21T01:39:01;97715.00;;;23.10
11240;BMP180;5677;48.488;13.436;2022-08-21T01:41:30;97712.00;;;23.10
11240;BMP180;5677;48.488;13.436;2022-08-21T01:43:58;97714.00;;;23.10
11240;BMP180;5677;48.488;13.436;2022-08-21T01:46:27;97717.00;;;23.10
11240;BMP180;5677;48.488;13.436;2022-08-21T01:48:56;97708.00;;;23.10
11240;BMP180;5677;48.488;13.436;2022-08-21T01:51:25;97713.00;;;23.10
11240;BMP180;5677;48.488;13.436;2022-08-21T01:53:55;97706.00;;;23.10
11240;BMP180;5677;48.488;13.436;2022-08-21T01:56:24;97705.00;;;23.10
11240;BMP180;5677;48.488;13.436;2022-08-21T01:58:54;97700.00;;;23.10
11240;BMP180;5677;48.488;13.436;2022-08-21T02:01:22;97699.00;;;23.10
11240;BMP180;5677;48.488;13.436;2022-08-21T02:03:51;97693.00;;;23.10
11240;BMP180;5677;48.488;13.436;2022-08-21T02:06:19;97700.00;;;23.10
11240;BMP180;5677;48.488;13.436;2022-08-21T02:08:48;97687.00;;;23.10
11240;BMP180;5677;48.488;13.436;2022-08-21T02:11:19;97682.00;;;23.10
11240;BMP180;5677;48.488;13.436;2022-08-21T02:13:48;97683.00;;;23.10
11240;BMP180;5677;48.488;13.436;2022-08-21T02:16:16;97681.00;;;23.10
11240;BMP180;5677;48.488;13.436;2022-08-21T02:18:45;97682.00;;;23.10
11240;BMP180;5677;48.488;13.436;2022-08-21T02:21:14;97674.00;;;23.10
11240;BMP180;5677;48.488;13.436;2022-08-21T02:23:44;97679.00;;;23.10
11240;BMP180;5677;48.488;13.436;2022-08-21T02:26:13;97676.00;;;23.10
11240;BMP180;5677;48.488;13.436;2022-08-21T02:28:43;97673.00;;;23.10
11240;BMP180;5677;48.488;13.436;2022-08-21T02:31:12;97675.00;;;23.10
11240;BMP180;5677;48.488;13.436;2022-08-21T02:33:41;97673.00;;;23.10
11240;BMP180;5677;48.488;13.436;2022-08-21T02:36:11;97674.00;;;23.10
11240;BMP180;5677;48.488;13.436;2022-08-21T02:38:42;97670.00;;;23.10
11240;BMP180;5677;48.488;13.436;2022-08-21T02:41:15;97671.00;;;23.10
11240;BMP180;5677;48.488;13.436;2022-08-21T02:43:46;97678.00;;;23.10
11240;BMP180;5677;48.488;13.436;2022-08-21T02:46:17;97683.00;;;23.10
11240;BMP180;5677;48.488;13.436;2022-08-21T02:48:47;97681.00;;;23.10
11240;BMP180;5677;48.488;13.436;2022-08-21T02:51:18;97675.00;;;23.10
11240;BMP180;5677;48.488;13.436;2022-08-21T02:53:49;97675.00;;;23.10
11240;BMP180;5677;48.488;13.436;2022-08-21T02:56:20;97676.00;;;23.10
11240;BMP180;5677;48.488;13.436;2022-08-21T02:58:52;97670.00;;;23.10
11240;BMP180;5677;48.488;13.436;2022-08-21T03:01:21;97677.00;;;23.10
11240;BMP180;5677;48.488;13.436;2022-08-21T03:03:49;97672.00;;;23.10
11240;BMP180;5677;48.488;13.436;2022-08-21T03:06:21;97678.00;;;23.10
11240;BMP180;5677;48.488;13.436;2022-08-21T03:08:51;97677.00;;;23.10
11240;BMP180;5677;48.488;13.436;2022-08-21T03:11:19;97675.00;;;23.10
11240;BMP180;5677;48.488;13.436;2022-08-21T03:13:50;97675.00;;;23.10
11240;BMP180;5677;48.488;13.436;2022-08-21T03:16:19;97674.00;;;23.10
11240;BMP180;5677;48.488;13.436;2022-08-21T03:18:47;97668.00;;;23.10
11240;BMP180;5677;48.488;13.436;2022-08-21T03:21:16;97673.00;;;23.10
11240;BMP180;5677;48.488;13.436;2022-08-21T03:23:45;97669.00;;;23.10
11240;BMP180;5677;48.488;13.436;2022-08-21T03:26:14;97667.00;;;23.10
11240;BMP180;5677;48.488;13.436;2022-08-21T03:28:42;97669.00;;;23.10
11240;BMP180;5677;48.488;13.436;2022-08-21T03:31:12;97664.00;;;23.10
11240;BMP180;5677;48.488;13.436;2022-08-21T03:33:43;97671.00;;;23.10
11240;BMP180;5677;48.488;13.436;2022-08-21T03:36:13;97677.00;;;23.10
11240;BMP180;5677;48.488;13.436;2022-08-21T03:38:41;97674.00;;;23.10
11240;BMP180;5677;48.488;13.436;2022-08-21T03:41:10;97679.00;;;23.10
11240;BMP180;5677;48.488;13.436;2022-08-21T03:43:39;97681.00;;;23.10
11240;BMP180;5677;48.488;13.436;2022-08-21T03:46:07;97685.00;;;23.10
11240;BMP180;5677;48.488;13.436;2022-08-21T03:48:39;97678.00;;;23.10
11240;BMP180;5677;48.488;13.436;2022-08-21T03:51:09;97679.00;;;23.10
11240;BMP180;5677;48.488;13.436;2022-08-21T03:53:38;97691.00;;;23.10
11240;BMP180;5677;48.488;13.436;2022-08-21T03:56:08;97690.00;;;23.10
11240;BMP180;5677;48.488;13.436;2022-08-21T03:58:36;97683.00;;;23.10
11240;BMP180;5677;48.488;13.436;2022-08-21T04:01:07;97690.00;;;23.10
11240;BMP180;5677;48.488;13.436;2022-08-21T04:03:38;97686.00;;;23.10
11240;BMP180;5677;48.488;13.436;2022-08-21T04:06:07;97689.00;;;23.10
11240;BMP180;5677;48.488;13.436;2022-08-21T04:08:37;97683.00;;;23.10
11240;BMP180;5677;48.488;13.436;2022-08-21T04:11:09;97689.00;;;23.10
11240;BMP180;5677;48.488;13.436;2022-08-21T04:13:38;97687.00;;;23.10
11240;BMP180;5677;48.488;13.436;2022-08-21T04:16:08;97695.00;;;23.10
11240;BMP180;5677;48.488;13.436;2022-08-21T04:18:38;97695.00;;;23.10
11240;BMP180;5677;48.488;13.436;2022-08-21T04:21:10;97696.00;;;23.10
11240;BMP180;5677;48.488;13.436;2022-08-21T04:23:40;97697.00;;;23.10
11240;BMP180;5677;48.488;13.436;2022-08-21T04:26:09;97701.00;;;23.10
11240;BMP180;5677;48.488;13.436;2022-08-21T04:28:38;97694.00;;;23.00
11240;BMP180;5677;48.488;13.436;2022-08-21T04:31:06;97701.00;;;23.10
11240;BMP180;5677;48.488;13.436;2022-08-21T04:33:37;97702.00;;;23.10
11240;BMP180;5677;48.488;13.436;2022-08-21T04:36:07;97706.00;;;23.00
11240;BMP180;5677;48.488;13.436;2022-08-21T04:38:35;97705.00;;;23.10
11240;BMP180;5677;48.488;13.436;2022-08-21T04:41:04;97706.00;;;23.00
11240;BMP180;5677;48.488;13.436;2022-08-21T04:43:34;97709.00;;;23.10
11240;BMP180;5677;48.488;13.436;2022-08-21T04:46:03;97709.00;;;23.00
11240;BMP180;5677;48.488;13.436;2022-08-21T04:48:32;97709.00;;;23.00
11240;BMP180;5677;48.488;13.436;2022-08-21T04:51:08;97700.00;;;23.00
11240;BMP180;5677;48.488;13.436;2022-08-21T04:53:41;97707.00;;;23.00
11240;BMP180;5677;48.488;13.436;2022-08-21T04:56:17;97706.00;;;23.00
11240;BMP180;5677;48.488;13.436;2022-08-21T04:58:47;97701.00;;;23.00
11240;BMP180;5677;48.488;13.436;2022-08-21T05:01:22;97710.00;;;23.00
11240;BMP180;5677;48.488;13.436;2022-08-21T05:03:55;97712.00;;;23.00
11240;BMP180;5677;48.488;13.436;2022-08-21T05:06:28;97714.00;;;23.00
11240;BMP180;5677;48.488;13.436;2022-08-21T05:08:59;97713.00;;;23.00
11240;BMP180;5677;48.488;13.436;2022-08-21T05:11:30;97709.00;;;23.00
11240;BMP180;5677;48.488;13.436;2022-08-21T05:13:59;97715.00;;;23.00
11240;BMP180;5677;48.488;13.436;2022-08-21T05:16:28;97721.00;;;23.00
11240;BMP180;5677;48.488;13.436;2022-08-21T05:18:57;97726.00;;;23.00
11240;BMP180;5677;48.488;13.436;2022-08-21T05:21:27;97721.00;;;23.00
11240;BMP180;5677;48.488;13.436;2022-08-21T05:23:55;97724.00;;;23.00
11240;BMP180;5677;48.488;13.436;2022-08-21T05:26:23;97727.00;;;23.00
11240;BMP180;5677;48.488;13.436;2022-08-21T05:28:53;97725.00;;;22.90
11240;BMP180;5677;48.488;13.436;2022-08-21T05:31:21;97725.00;;;22.90
11240;BMP180;5677;48.488;13.436;2022-08-21T05:33:50;97727.00;;;22.90
11240;BMP180;5677;48.488;13.436;2022-08-21T05:36:19;97730.00;;;22.90
11240;BMP180;5677;48.488;13.436;2022-08-21T05:38:49;97738.00;;;22.90
11240;BMP180;5677;48.488;13.436;2022-08-21T05:41:18;97738.00;;;22.90
11240;BMP180;5677;48.488;13.436;2022-08-21T05:43:47;97742.00;;;22.90
11240;BMP180;5677;48.488;13.436;2022-08-21T05:46:16;97747.00;;;22.80
11240;BMP180;5677;48.488;13.436;2022-08-21T05:48:44;97746.00;;;22.80
11240;BMP180;5677;48.488;13.436;2022-08-21T05:51:15;97747.00;;;22.80
11240;BMP180;5677;48.488;13.436;2022-08-21T05:53:44;97746.00;;;22.80
11240;BMP180;5677;48.488;13.436;2022-08-21T05:56:15;97743.00;;;22.80
11240;BMP180;5677;48.488;13.436;2022-08-21T05:58:44;97745.00;;;22.80
11240;BMP180;5677;48.488;13.436;2022-08-21T06:01:12;97745.00;;;22.80
11240;BMP180;5677;48.488;13.436;2022-08-21T06:03:42;97745.00;;;22.80
11240;BMP180;5677;48.488;13.436;2022-08-21T06:06:12;97751.00;;;22.80
11240;BMP180;5677;48.488;13.436;2022-08-21T06:08:42;97748.00;;;22.80
11240;BMP180;5677;48.488;13.436;2022-08-21T06:11:13;97747.00;;;22.70
11240;BMP180;5677;48.488;13.436;2022-08-21T06:13:41;97744.00;;;22.70
11240;BMP180;5677;48.488;13.436;2022-08-21T06:16:13;97744.00;;;22.70
11240;BMP180;5677;48.488;13.436;2022-08-21T06:18:43;97753.00;;;22.70
11240;BMP180;5677;48.488;13.436;2022-08-21T06:21:12;97755.00;;;22.70
11240;BMP180;5677;48.488;13.436;2022-08-21T06:23:42;97745.00;;;22.70
11240;BMP180;5677;48.488;13.436;2022-08-21T06:26:14;97749.00;;;22.70
11240;BMP180;5677;48.488;13.436;2022-08-21T06:28:43;97751.00;;;22.70
11240;BMP180;5677;48.488;13.436;2022-08-21T06:31:15;97754.00;;;22.70
11240;BMP180;5677;48.488;13.436;2022-08-21T06:33:44;97753.00;;;22.70
11240;BMP180;5677;48.488;13.436;2022-08-21T06:36:13;97748.00;;;22.60
11240;BMP180;5677;48.488;13.436;2022-08-21T06:38:41;97755.00;;;22.60
11240;BMP180;5677;48.488;13.436;2022-08-21T06:41:10;97755.00;;;22.60
11240;BMP180;5677;48.488;13.436;2022-08-21T06:43:40;97754.00;;;22.60
11240;BMP180;5677;48.488;13.436;2022-08-21T06:46:08;97745.00;;;22.60
11240;BMP180;5677;48.488;13.436;2022-08-21T06:48:37;97750.00;;;22.70
11240;BMP180;5677;48.488;13.436;2022-08-21T06:51:06;97745.00;;;22.60
11240;BMP180;5677;48.488;13.436;2022-08-21T06:53:34;97749.00;;;22.70
11240;BMP180;5677;48.488;13.436;2022-08-21T06:56:05;97749.00;;;22.70
11240;BMP180;5677;48.488;13.436;2022-08-21T06:58:33;97752.00;;;22.60
11240;BMP180;5677;48.488;13.436;2022-08-21T07:01:04;97750.00;;;22.70
11240;BMP180;5677;48.488;13.436;2022-08-21T07:03:37;97746.00;;;22.70
11240;BMP180;5677;48.488;13.436;2022-08-21T07:06:08;97746.00;;;22.70
11240;BMP180;5677;48.488;13.436;2022-08-21T07:08:38;97748.00;;;22.70
11240;BMP180;5677;48.488;13.436;2022-08-21T07:11:14;97742.00;;;22.70
11240;BMP180;5677;48.488;13.436;2022-08-21T07:13:45;97750.00;;;22.70
11240;BMP180;5677;48.488;13.436;2022-08-21T07:16:15;97752.00;;;22.70
11240;BMP180;5677;48.488;13.436;2022-08-21T07:18:44;97749.00;;;22.70
11240;BMP180;5677;48.488;13.436;2022-08-21T07:21:13;97750.00;;;22.70
11240;BMP180;5677;48.488;13.436;2022-08-21T07:23:45;97740.00;;;22.70
11240;BMP180;5677;48.488;13.436;2022-08-21T07:26:15;97746.00;;;22.60
11240;BMP180;5677;48.488;13.436;2022-08-21T07:28:44;97747.00;;;22.60
11240;BMP180;5677;48.488;13.436;2022-08-21T07:31:17;97743.00;;;22.60
11240;BMP180;5677;48.488;13.436;2022-08-21T07:33:47;97749.00;;;22.70
11240;BMP180;5677;48.488;13.436;2022-08-21T07:36:16;97747.00;;;22.60
11240;BMP180;5677;48.488;13.436;2022-08-21T07:38:46;97749.00;;;22.60
11240;BMP180;5677;48.488;13.436;2022-08-21T07:41:17;97746.00;;;22.60
11240;BMP180;5677;48.488;13.436;2022-08-21T07:43:46;97750.00;;;22.60
11240;BMP180;5677;48.488;13.436;2022-08-21T07:46:17;97748.00;;;22.60
11240;BMP180;5677;48.488;13.436;2022-08-21T07:48:46;97738.00;;;22.60
11240;BMP180;5677;48.488;13.436;2022-08-21T07:51:16;97745.00;;;22.60
11240;BMP180;5677;48.488;13.436;2022-08-21T07:53:49;97742.00;;;22.60
11240;BMP180;5677;48.488;13.436;2022-08-21T07:56:19;97747.00;;;22.60
11240;BMP180;5677;48.488;13.436;2022-08-21T07:58:48;97749.00;;;22.50
11240;BMP180;5677;48.488;13.436;2022-08-21T08:01:19;97747.00;;;22.50
11240;BMP180;5677;48.488;13.436;2022-08-21T08:03:47;97745.00;;;22.50
11240;BMP180;5677;48.488;13.436;2022-08-21T08:06:17;97747.00;;;22.50
11240;BMP180;5677;48.488;13.436;2022-08-21T08:08:46;97747.00;;;22.50
11240;BMP180;5677;48.488;13.436;2022-08-21T08:11:15;97747.00;;;22.50
11240;BMP180;5677;48.488;13.436;2022-08-21T08:13:48;97746.00;;;22.60
11240;BMP180;5677;48.488;13.436;2022-08-21T08:16:19;97740.00;;;22.60
11240;BMP180;5677;48.488;13.436;2022-08-21T08:18:48;97746.00;;;22.60
11240;BMP180;5677;48.488;13.436;2022-08-21T08:21:17;97747.00;;;22.70
11240;BMP180;5677;48.488;13.436;2022-08-21T08:23:48;97747.00;;;22.70
11240;BMP180;5677;48.488;13.436;2022-08-21T08:26:16;97745.00;;;22.70
11240;BMP180;5677;48.488;13.436;2022-08-21T08:28:44;97740.00;;;22.70
11240;BMP180;5677;48.488;13.436;2022-08-21T08:31:15;97743.00;;;22.70
11240;BMP180;5677;48.488;13.436;2022-08-21T08:33:45;97746.00;;;22.70
11240;BMP180;5677;48.488;13.436;2022-08-21T08:36:15;97747.00;;;22.70
11240;BMP180;5677;48.488;13.436;2022-08-21T08:38:44;97740.00;;;22.70
11240;BMP180;5677;48.488;13.436;2022-08-21T08:41:16;97740.00;;;22.70
11240;BMP180;5677;48.488;13.436;2022-08-21T08:43:59;97747.00;;;22.80
11240;BMP180;5677;48.488;13.436;2022-08-21T08:46:36;97746.00;;;22.80
11240;BMP180;5677;48.488;13.436;2022-08-21T08:49:15;97742.00;;;22.80
11240;BMP180;5677;48.488;13.436;2022-08-21T08:51:51;97747.00;;;22.80
11240;BMP180;5677;48.488;13.436;2022-08-21T08:54:29;97746.00;;;22.80
11240;BMP180;5677;48.488;13.436;2022-08-21T08:57:00;97742.00;;;22.80
11240;BMP180;5677;48.488;13.436;2022-08-21T08:59:38;97745.00;;;22.80
11240;BMP180;5677;48.488;13.436;2022-08-21T09:02:11;97744.00;;;22.80
11240;BMP180;5677;48.488;13.436;2022-08-21T09:04:45;97741.00;;;22.80
11240;BMP180;5677;48.488;13.436;2022-08-21T09:07:24;97742.00;;;22.80
11240;BMP180;5677;48.488;13.436;2022-08-21T09:10:10;97745.00;;;22.80
11240;BMP180;5677;48.488;13.436;2022-08-21T09:12:52;97744.00;;;22.80
11240;BMP180;5677;48.488;13.436;2022-08-21T09:15:33;97746.00;;;22.80
11240;BMP180;5677;48.488;13.436;2022-08-21T09:18:33;97746.00;;;22.80
11240;BMP180;5677;48.488;13.436;2022-08-21T09:21:18;97748.00;;;22.80
11240;BMP180;5677;48.488;13.436;2022-08-21T09:24:00;97745.00;;;22.80
11240;BMP180;5677;48.488;13.436;2022-08-21T09:26:39;97737.00;;;22.80
11240;BMP180;5677;48.488;13.436;2022-08-21T09:29:12;97734.00;;;22.90
11240;BMP180;5677;48.488;13.436;2022-08-21T09:31:40;97732.00;;;22.90
11240;BMP180;5677;48.488;13.436;2022-08-21T09:34:12;97741.00;;;22.90
11240;BMP180;5677;48.488;13.436;2022-08-21T09:36:45;97742.00;;;22.90
11240;BMP180;5677;48.488;13.436;2022-08-21T09:39:27;97732.00;;;22.90
11240;BMP180;5677;48.488;13.436;2022-08-21T09:41:59;97730.00;;;22.90
11240;BMP180;5677;48.488;13.436;2022-08-21T09:44:31;97732.00;;;22.90
11240;BMP180;5677;48.488;13.436;2022-08-21T09:47:03;97732.00;;;22.90
11240;BMP180;5677;48.488;13.436;2022-08-21T09:49:37;97724.00;;;22.90
11240;BMP180;5677;48.488;13.436;2022-08-21T09:52:21;97726.00;;;22.90
11240;BMP180;5677;48.488;13.436;2022-08-21T09:54:53;97718.00;;;22.90
11240;BMP180;5677;48.488;13.436;2022-08-21T09:57:27;97714.00;;;23.00
11240;BMP180;5677;48.488;13.436;2022-08-21T10:00:18;97716.00;;;23.00
11240;BMP180;5677;48.488;13.436;2022-08-21T10:02:46;97701.00;;;23.00
11240;BMP180;5677;48.488;13.436;2022-08-21T10:05:26;97711.00;;;23.00
11240;BMP180;5677;48.488;13.436;2022-08-21T10:07:56;97711.00;;;23.00
11240;BMP180;5677;48.488;13.436;2022-08-21T10:10:29;97705.00;;;23.00
11240;BMP180;5677;48.488;13.436;2022-08-21T10:13:12;97708.00;;;23.10
11240;BMP180;5677;48.488;13.436;2022-08-21T10:15:53;97704.00;;;23.10
11240;BMP180;5677;48.488;13.436;2022-08-21T10:18:29;97707.00;;;23.10
11240;BMP180;5677;48.488;13.436;2022-08-21T10:21:10;97700.00;;;23.10
11240;BMP180;5677;48.488;13.436;2022-08-21T10:23:59;97698.00;;;23.10
11240;BMP180;5677;48.488;13.436;2022-08-21T10:26:44;97697.00;;;23.10
11240;BMP180;5677;48.488;13.436;2022-08-21T10:29:38;97694.00;;;23.20
11240;BMP180;5677;48.488;13.436;2022-08-21T10:32:43;97708.00;;;23.20
11240;BMP180;5677;48.488;13.436;2022-08-21T10:35:22;97695.00;;;23.20
11240;BMP180;5677;48.488;13.436;2022-08-21T10:38:37;97697.00;;;23.20
11240;BMP180;5677;48.488;13.436;2022-08-21T10:41:23;97687.00;;;23.20
11240;BMP180;5677;48.488;13.436;2022-08-21T10:44:09;97685.00;;;23.30
11240;BMP180;5677;48.488;13.436;2022-08-21T10:46:51;97674.00;;;23.30
11240;BMP180;5677;48.488;13.436;2022-08-21T10:49:31;97670.00;;;23.30
11240;BMP180;5677;48.488;13.436;2022-08-21T10:52:36;97676.00;;;23.30
11240;BMP180;5677;48.488;13.436;2022-08-21T10:55:14;97679.00;;;23.30
11240;BMP180;5677;48.488;13.436;2022-08-21T10:57:50;97674.00;;;23.30
11240;BMP180;5677;48.488;13.436;2022-08-21T11:00:28;97670.00;;;23.30
11240;BMP180;5677;48.488;13.436;2022-08-21T11:03:07;97674.00;;;23.30
11240;BMP180;5677;48.488;13.436;2022-08-21T11:05:44;97672.00;;;23.30
11240;BMP180;5677;48.488;13.436;2022-08-21T11:08:22;97663.00;;;23.30
11240;BMP180;5677;48.488;13.436;2022-08-21T11:10:59;97657.00;;;23.30
11240;BMP180;5677;48.488;13.436;2022-08-21T11:13:42;97658.00;;;23.40
11240;BMP180;5677;48.488;13.436;2022-08-21T11:16:22;97656.00;;;23.30
11240;BMP180;5677;48.488;13.436;2022-08-21T11:18:59;97660.00;;;23.40
11240;BMP180;5677;48.488;13.436;2022-08-21T11:21:37;97650.00;;;23.40
11240;BMP180;5677;48.488;13.436;2022-08-21T11:24:27;97645.00;;;23.40
11240;BMP180;5677;48.488;13.436;2022-08-21T11:27:06;97647.00;;;23.40
11240;BMP180;5677;48.488;13.436;2022-08-21T11:29:41;97636.00;;;23.40
11240;BMP180;5677;48.488;13.436;2022-08-21T11:32:58;97633.00;;;23.40
11240;BMP180;5677;48.488;13.436;2022-08-21T11:35:37;97639.00;;;23.40
11240;BMP180;5677;48.488;13.436;2022-08-21T11:38:27;97630.00;;;23.50
11240;BMP180;5677;48.488;13.436;2022-08-21T11:41:24;97634.00;;;23.50
11240;BMP180;5677;48.488;13.436;2022-08-21T11:44:10;97628.00;;;23.50
11240;BMP180;5677;48.488;13.436;2022-08-21T11:46:56;97626.00;;;23.50
11240;BMP180;5677;48.488;13.436;2022-08-21T11:49:46;97623.00;;;23.50
11240;BMP180;5677;48.488;13.436;2022-08-21T11:52:25;97620.00;;;23.50
11240;BMP180;5677;48.488;13.436;2022-08-21T11:55:05;97619.00;;;23.50
11240;BMP180;5677;48.488;13.436;2022-08-21T11:57:44;97617.00;;;23.50
11240;BMP180;5677;48.488;13.436;2022-08-21T12:00:22;97609.00;;;23.50
11240;BMP180;5677;48.488;13.436;2022-08-21T12:02:58;97615.00;;;23.50
11240;BMP180;5677;48.488;13.436;2022-08-21T12:05:32;97615.00;;;23.50
11240;BMP180;5677;48.488;13.436;2022-08-21T12:08:06;97615.00;;;23.50
11240;BMP180;5677;48.488;13.436;2022-08-21T12:10:40;97607.00;;;23.50
11240;BMP180;5677;48.488;13.436;2022-08-21T12:13:21;97599.00;;;23.50
11240;BMP180;5677;48.488;13.436;2022-08-21T12:15:50;97598.00;;;23.50
11240;BMP180;5677;48.488;13.436;2022-08-21T12:18:30;97605.00;;;23.50
11240;BMP180;5677;48.488;13.436;2022-08-21T12:21:05;97606.00;;;23.50
11240;BMP180;5677;48.488;13.436;2022-08-21T12:23:48;97601.00;;;23.50
11240;BMP180;5677;48.488;13.436;2022-08-21T12:26:28;97609.00;;;23.50
11240;BMP180;5677;48.488;13.436;2022-08-21T12:29:16;97608.00;;;23.50
11240;BMP180;5677;48.488;13.436;2022-08-21T12:31:56;97616.00;;;23.50
11240;BMP180;5677;48.488;13.436;2022-08-21T12:34:35;97601.00;;;23.50
11240;BMP180;5677;48.488;13.436;2022-08-21T12:37:09;97607.00;;;23.60
11240;BMP180;5677;48.488;13.436;2022-08-21T12:39:47;97609.00;;;23.50
11240;BMP180;5677;48.488;13.436;2022-08-21T12:42:21;97617.00;;;23.60
11240;BMP180;5677;48.488;13.436;2022-08-21T12:44:56;97608.00;;;23.50
11240;BMP180;5677;48.488;13.436;2022-08-21T12:47:32;97613.00;;;23.50
11240;BMP180;5677;48.488;13.436;2022-08-21T12:50:09;97607.00;;;23.40
11240;BMP180;5677;48.488;13.436;2022-08-21T12:52:45;97608.00;;;23.40
11240;BMP180;5677;48.488;13.436;2022-08-21T12:55:27;97606.00;;;23.40
11240;BMP180;5677;48.488;13.436;2022-08-21T12:57:56;97604.00;;;23.40
11240;BMP180;5677;48.488;13.436;2022-08-21T13:00:28;97602.00;;;23.30
11240;BMP180;5677;48.488;13.436;2022-08-21T13:02:57;97600.00;;;23.30
11240;BMP180;5677;48.488;13.436;2022-08-21T13:05:35;97602.00;;;23.30
11240;BMP180;5677;48.488;13.436;2022-08-21T13:08:06;97599.00;;;23.30
11240;BMP180;5677;48.488;13.436;2022-08-21T13:10:38;97596.00;;;23.30
11240;BMP180;5677;48.488;13.436;2022-08-21T13:13:15;97596.00;;;23.20
11240;BMP180;5677;48.488;13.436;2022-08-21T13:15:46;97588.00;;;23.20
11240;BMP180;5677;48.488;13.436;2022-08-21T13:18:23;97595.00;;;23.20
11240;BMP180;5677;48.488;13.436;2022-08-21T13:21:06;97593.00;;;23.20
11240;BMP180;5677;48.488;13.436;2022-08-21T13:23:35;97597.00;;;23.20
11240;BMP180;5677;48.488;13.436;2022-08-21T13:26:14;97593.00;;;23.20
11240;BMP180;5677;48.488;13.436;2022-08-21T13:28:43;97593.00;;;23.20
11240;BMP180;5677;48.488;13.436;2022-08-21T13:31:20;97591.00;;;23.20
11240;BMP180;5677;48.488;13.436;2022-08-21T13:33:50;97583.00;;;23.20
11240;BMP180;5677;48.488;13.436;2022-08-21T13:36:27;97586.00;;;23.20
11240;BMP180;5677;48.488;13.436;2022-08-21T13:38:57;97586.00;;;23.20
11240;BMP180;5677;48.488;13.436;2022-08-21T13:41:31;97577.00;;;23.20
11240;BMP180;5677;48.488;13.436;2022-08-21T13:44:05;97579.00;;;23.20
11240;BMP180;5677;48.488;13.436;2022-08-21T13:46:36;97587.00;;;23.20
11240;BMP180;5677;48.488;13.436;2022-08-21T13:49:06;97583.00;;;23.20
11240;BMP180;5677;48.488;13.436;2022-08-21T13:51:39;97584.00;;;23.20
11240;BMP180;5677;48.488;13.436;2022-08-21T13:54:23;97587.00;;;23.30
11240;BMP180;5677;48.488;13.436;2022-08-21T13:56:54;97588.00;;;23.20
11240;BMP180;5677;48.488;13.436;2022-08-21T13:59:29;97597.00;;;23.30
11240;BMP180;5677;48.488;13.436;2022-08-21T14:02:02;97588.00;;;23.30
11240;BMP180;5677;48.488;13.436;2022-08-21T14:04:39;97587.00;;;23.30
11240;BMP180;5677;48.488;13.436;2022-08-21T14:07:20;97592.00;;;23.30
11240;BMP180;5677;48.488;13.436;2022-08-21T14:09:53;97592.00;;;23.30
11240;BMP180;5677;48.488;13.436;2022-08-21T14:12:36;97589.00;;;23.20
11240;BMP180;5677;48.488;13.436;2022-08-21T14:15:10;97589.00;;;23.30
11240;BMP180;5677;48.488;13.436;2022-08-21T14:17:42;97590.00;;;23.20
11240;BMP180;5677;48.488;13.436;2022-08-21T14:20:27;97586.00;;;23.20
11240;BMP180;5677;48.488;13.436;2022-08-21T14:22:58;97578.00;;;23.20
11240;BMP180;5677;48.488;13.436;2022-08-21T14:25:37;97585.00;;;23.20
11240;BMP180;5677;48.488;13.436;2022-08-21T14:28:19;97575.00;;;23.10
11240;BMP180;5677;48.488;13.436;2022-08-21T14:30:49;97573.00;;;23.10
11240;BMP180;5677;48.488;13.436;2022-08-21T14:33:25;97578.00;;;23.10
11240;BMP180;5677;48.488;13.436;2022-08-21T14:35:55;97573.00;;;23.10
11240;BMP180;5677;48.488;13.436;2022-08-21T14:38:27;97570.00;;;23.10
11240;BMP180;5677;48.488;13.436;2022-08-21T14:41:00;97571.00;;;23.10
11240;BMP180;5677;48.488;13.436;2022-08-21T14:43:32;97563.00;;;23.10